sensor_id;sensor_type;location;lat;lon;timestamp;temperature;humidity
8910;DHT22;4490;49.072;8.804;2023-06-19T00:01:58;22.80;69.50
8910;DHT22;4490;49.072;8.804;2023-06-19T00:04:23;22.70;69.70
8910;DHT22;4490;49.072;8.804;2023-06-19T00:06:49;22.70;69.70
8910;DHT22;4490;49.072;8.804;2023-06-19T00:09:15;22.60;69.90
8910;DHT22;4490;49.072;8.804;2023-06-19T00:11:40;22.60;70.00
8910;DHT22;4490;49.072;8.804;2023-06-19T00:14:06;22.60;70.30
8910;DHT22;4490;49.072;8.804;2023-06-19T00:16:32;22.60;70.50
8910;DHT22;4490;49.072;8.804;2023-06-19T00:18:58;22.50;70.70
8910;DHT22;4490;49.072;8.804;2023-06-19T00:21:24;22.50;70.70
8910;DHT22;4490;49.072;8.804;2023-06-19T00:23:51;22.40;70.80
8910;DHT22;4490;49.072;8.804;2023-06-19T00:26:17;22.30;71.00
8910;DHT22;4490;49.072;8.804;2023-06-19T00:28:43;22.30;71.10
8910;DHT22;4490;49.072;8.804;2023-06-19T00:31:11;22.20;71.40
8910;DHT22;4490;49.072;8.804;2023-06-19T00:33:39;22.20;71.50
8910;DHT22;4490;49.072;8.804;2023-06-19T00:36:09;22.10;71.60
8910;DHT22;4490;49.072;8.804;2023-06-19T00:38:36;22.00;71.80
8910;DHT22;4490;49.072;8.804;2023-06-19T00:41:03;22.00;72.10
8910;DHT22;4490;49.072;8.804;2023-06-19T00:43:28;22.00;72.20
8910;DHT22;4490;49.072;8.804;2023-06-19T00:45:56;22.00;72.50
8910;DHT22;4490;49.072;8.804;2023-06-19T00:48:23;22.00;73.00
8910;DHT22;4490;49.072;8.804;2023-06-19T00:50:50;22.00;72.80
8910;DHT22;4490;49.072;8.804;2023-06-19T00:53:15;22.10;72.50
8910;DHT22;4490;49.072;8.804;2023-06-19T00:55:42;22.20;72.30
8910;DHT22;4490;49.072;8.804;2023-06-19T00:58:09;22.40;72.10
8910;DHT22;4490;49.072;8.804;2023-06-19T01:00:35;22.50;72.00
8910;DHT22;4490;49.072;8.804;2023-06-19T01:03:01;22.70;72.10
8910;DHT22;4490;49.072;8.804;2023-06-19T01:05:26;22.80;72.00
8910;DHT22;4490;49.072;8.804;2023-06-19T01:08:04;22.90;72.10
8910;DHT22;4490;49.072;8.804;2023-06-19T01:10:38;23.00;72.30
8910;DHT22;4490;49.072;8.804;2023-06-19T01:15:42;23.10;72.60
8910;DHT22;4490;49.072;8.804;2023-06-19T01:18:08;23.20;72.60
8910;DHT22;4490;49.072;8.804;2023-06-19T01:20:37;23.20;72.50
8910;DHT22;4490;49.072;8.804;2023-06-19T01:23:10;23.30;72.60
8910;DHT22;4490;49.072;8.804;2023-06-19T01:25:36;23.30;72.60
8910;DHT22;4490;49.072;8.804;2023-06-19T01:28:05;23.30;72.70
8910;DHT22;4490;49.072;8.804;2023-06-19T01:30:34;23.30;72.60
8910;DHT22;4490;49.072;8.804;2023-06-19T01:33:31;23.30;72.70
8910;DHT22;4490;49.072;8.804;2023-06-19T01:35:57;23.30;72.90
8910;DHT22;4490;49.072;8.804;2023-06-19T01:38:24;23.30;72.90
8910;DHT22;4490;49.072;8.804;2023-06-19T01:40:53;23.30;73.50
8910;DHT22;4490;49.072;8.804;2023-06-19T01:43:20;23.30;73.70
8910;DHT22;4490;49.072;8.804;2023-06-19T01:45:46;23.30;74.00
8910;DHT22;4490;49.072;8.804;2023-06-19T01:48:11;23.30;74.40
8910;DHT22;4490;49.072;8.804;2023-06-19T01:50:38;23.20;74.70
8910;DHT22;4490;49.072;8.804;2023-06-19T01:53:03;23.20;74.90
8910;DHT22;4490;49.072;8.804;2023-06-19T01:55:29;23.10;75.40
8910;DHT22;4490;49.072;8.804;2023-06-19T01:57:55;23.10;75.60
8910;DHT22;4490;49.072;8.804;2023-06-19T02:00:21;23.10;76.10
8910;DHT22;4490;49.072;8.804;2023-06-19T02:02:46;23.10;76.40
8910;DHT22;4490;49.072;8.804;2023-06-19T02:05:13;23.00;76.20
8910;DHT22;4490;49.072;8.804;2023-06-19T02:07:39;23.00;76.40
8910;DHT22;4490;49.072;8.804;2023-06-19T02:10:05;23.00;77.00
8910;DHT22;4490;49.072;8.804;2023-06-19T02:12:31;23.00;78.10
8910;DHT22;4490;49.072;8.804;2023-06-19T02:14:56;22.80;79.20
8910;DHT22;4490;49.072;8.804;2023-06-19T02:17:22;22.80;80.70
8910;DHT22;4490;49.072;8.804;2023-06-19T02:19:48;22.70;82.30
8910;DHT22;4490;49.072;8.804;2023-06-19T02:22:13;22.60;83.60
8910;DHT22;4490;49.072;8.804;2023-06-19T02:24:39;22.50;85.30
8910;DHT22;4490;49.072;8.804;2023-06-19T02:27:05;22.30;86.90
8910;DHT22;4490;49.072;8.804;2023-06-19T02:29:31;22.30;90.20
8910;DHT22;4490;49.072;8.804;2023-06-19T02:31:59;22.20;91.90
8910;DHT22;4490;49.072;8.804;2023-06-19T02:34:25;22.10;92.90
8910;DHT22;4490;49.072;8.804;2023-06-19T02:36:50;22.10;95.20
8910;DHT22;4490;49.072;8.804;2023-06-19T02:39:16;22.00;97.00
8910;DHT22;4490;49.072;8.804;2023-06-19T02:41:42;21.90;97.90
8910;DHT22;4490;49.072;8.804;2023-06-19T02:44:14;21.90;98.80
8910;DHT22;4490;49.072;8.804;2023-06-19T02:46:40;21.80;99.90
8910;DHT22;4490;49.072;8.804;2023-06-19T02:49:05;21.70;99.90
8910;DHT22;4490;49.072;8.804;2023-06-19T02:51:31;21.70;99.90
8910;DHT22;4490;49.072;8.804;2023-06-19T02:53:57;21.70;99.90
8910;DHT22;4490;49.072;8.804;2023-06-19T02:56:23;21.60;99.90
8910;DHT22;4490;49.072;8.804;2023-06-19T02:58:49;21.50;99.90
8910;DHT22;4490;49.072;8.804;2023-06-19T03:01:15;21.50;99.90
8910;DHT22;4490;49.072;8.804;2023-06-19T03:03:41;21.40;99.90
8910;DHT22;4490;49.072;8.804;2023-06-19T03:06:07;21.40;99.90
8910;DHT22;4490;49.072;8.804;2023-06-19T03:08:36;21.40;99.90
8910;DHT22;4490;49.072;8.804;2023-06-19T03:11:03;21.40;99.90
8910;DHT22;4490;49.072;8.804;2023-06-19T03:13:43;21.30;99.90
8910;DHT22;4490;49.072;8.804;2023-06-19T03:16:09;21.30;99.90
8910;DHT22;4490;49.072;8.804;2023-06-19T03:18:34;21.30;99.90
8910;DHT22;4490;49.072;8.804;2023-06-19T03:21:00;21.20;99.90
8910;DHT22;4490;49.072;8.804;2023-06-19T03:23:25;21.20;99.90
8910;DHT22;4490;49.072;8.804;2023-06-19T03:25:51;21.10;99.90
8910;DHT22;4490;49.072;8.804;2023-06-19T03:28:17;21.10;99.90
8910;DHT22;4490;49.072;8.804;2023-06-19T03:30:42;21.10;99.90
8910;DHT22;4490;49.072;8.804;2023-06-19T03:33:08;21.00;99.90
8910;DHT22;4490;49.072;8.804;2023-06-19T03:35:33;21.00;99.90
8910;DHT22;4490;49.072;8.804;2023-06-19T03:37:59;21.00;99.90
8910;DHT22;4490;49.072;8.804;2023-06-19T03:40:24;20.90;99.90
8910;DHT22;4490;49.072;8.804;2023-06-19T03:42:50;20.90;99.90
8910;DHT22;4490;49.072;8.804;2023-06-19T03:45:16;20.90;99.90
8910;DHT22;4490;49.072;8.804;2023-06-19T03:47:41;21.00;99.90
8910;DHT22;4490;49.072;8.804;2023-06-19T03:50:07;21.00;99.90
8910;DHT22;4490;49.072;8.804;2023-06-19T03:52:36;21.00;99.90
8910;DHT22;4490;49.072;8.804;2023-06-19T03:55:03;21.00;99.90
8910;DHT22;4490;49.072;8.804;2023-06-19T03:57:28;21.00;99.90
8910;DHT22;4490;49.072;8.804;2023-06-19T03:59:54;21.10;99.90
8910;DHT22;4490;49.072;8.804;2023-06-19T04:02:20;21.10;99.90
8910;DHT22;4490;49.072;8.804;2023-06-19T04:04:45;21.10;99.90
8910;DHT22;4490;49.072;8.804;2023-06-19T04:07:11;21.10;99.90
8910;DHT22;4490;49.072;8.804;2023-06-19T04:09:37;21.10;99.90
8910;DHT22;4490;49.072;8.804;2023-06-19T04:12:02;21.10;99.90
8910;DHT22;4490;49.072;8.804;2023-06-19T04:14:28;21.10;99.90
8910;DHT22;4490;49.072;8.804;2023-06-19T04:16:55;21.10;99.90
8910;DHT22;4490;49.072;8.804;2023-06-19T04:19:20;21.10;99.90
8910;DHT22;4490;49.072;8.804;2023-06-19T04:21:46;21.10;99.90
8910;DHT22;4490;49.072;8.804;2023-06-19T04:24:11;21.10;99.90
8910;DHT22;4490;49.072;8.804;2023-06-19T04:26:37;21.10;99.90
8910;DHT22;4490;49.072;8.804;2023-06-19T04:29:03;21.10;99.90
8910;DHT22;4490;49.072;8.804;2023-06-19T04:31:28;21.10;99.90
8910;DHT22;4490;49.072;8.804;2023-06-19T04:33:55;21.20;99.90
8910;DHT22;4490;49.072;8.804;2023-06-19T04:36:22;21.20;99.90
8910;DHT22;4490;49.072;8.804;2023-06-19T04:38:48;21.20;99.90
8910;DHT22;4490;49.072;8.804;2023-06-19T04:41:16;21.20;99.90
8910;DHT22;4490;49.072;8.804;2023-06-19T04:43:42;21.20;99.90
8910;DHT22;4490;49.072;8.804;2023-06-19T04:46:08;21.20;99.90
8910;DHT22;4490;49.072;8.804;2023-06-19T04:48:33;21.20;99.90
8910;DHT22;4490;49.072;8.804;2023-06-19T04:51:01;21.20;99.90
8910;DHT22;4490;49.072;8.804;2023-06-19T04:53:27;21.30;99.90
8910;DHT22;4490;49.072;8.804;2023-06-19T04:55:53;21.30;99.90
8910;DHT22;4490;49.072;8.804;2023-06-19T04:58:21;21.30;99.90
8910;DHT22;4490;49.072;8.804;2023-06-19T05:00:47;21.30;99.90
8910;DHT22;4490;49.072;8.804;2023-06-19T05:03:19;21.40;99.90
8910;DHT22;4490;49.072;8.804;2023-06-19T05:05:45;21.40;99.90
8910;DHT22;4490;49.072;8.804;2023-06-19T05:08:11;21.40;99.90
8910;DHT22;4490;49.072;8.804;2023-06-19T05:10:37;21.40;99.90
8910;DHT22;4490;49.072;8.804;2023-06-19T05:13:03;21.50;99.90
8910;DHT22;4490;49.072;8.804;2023-06-19T05:15:28;21.50;99.90
8910;DHT22;4490;49.072;8.804;2023-06-19T05:17:54;21.60;99.90
8910;DHT22;4490;49.072;8.804;2023-06-19T05:20:20;21.60;99.90
8910;DHT22;4490;49.072;8.804;2023-06-19T05:22:45;21.70;99.90
8910;DHT22;4490;49.072;8.804;2023-06-19T05:25:11;21.70;99.90
8910;DHT22;4490;49.072;8.804;2023-06-19T05:27:37;21.80;99.90
8910;DHT22;4490;49.072;8.804;2023-06-19T05:30:03;21.80;99.90
8910;DHT22;4490;49.072;8.804;2023-06-19T05:32:29;21.90;99.90
8910;DHT22;4490;49.072;8.804;2023-06-19T05:34:56;22.00;99.90
8910;DHT22;4490;49.072;8.804;2023-06-19T05:37:21;22.10;99.90
8910;DHT22;4490;49.072;8.804;2023-06-19T05:39:48;22.10;99.90
8910;DHT22;4490;49.072;8.804;2023-06-19T05:42:14;22.20;99.90
8910;DHT22;4490;49.072;8.804;2023-06-19T05:44:39;22.30;99.90
8910;DHT22;4490;49.072;8.804;2023-06-19T05:47:05;22.40;99.90
8910;DHT22;4490;49.072;8.804;2023-06-19T05:49:31;22.50;99.90
8910;DHT22;4490;49.072;8.804;2023-06-19T05:51:57;22.60;99.90
8910;DHT22;4490;49.072;8.804;2023-06-19T05:54:25;22.70;99.90
8910;DHT22;4490;49.072;8.804;2023-06-19T05:56:50;22.80;99.90
8910;DHT22;4490;49.072;8.804;2023-06-19T05:59:16;23.00;99.90
8910;DHT22;4490;49.072;8.804;2023-06-19T06:01:42;23.20;99.70
8910;DHT22;4490;49.072;8.804;2023-06-19T06:04:08;23.50;98.70
8910;DHT22;4490;49.072;8.804;2023-06-19T06:06:33;23.70;97.20
8910;DHT22;4490;49.072;8.804;2023-06-19T06:09:00;23.90;95.70
8910;DHT22;4490;49.072;8.804;2023-06-19T06:11:26;24.00;94.40
8910;DHT22;4490;49.072;8.804;2023-06-19T06:13:51;24.10;93.60
8910;DHT22;4490;49.072;8.804;2023-06-19T06:16:17;24.10;93.00
8910;DHT22;4490;49.072;8.804;2023-06-19T06:18:44;24.10;93.00
8910;DHT22;4490;49.072;8.804;2023-06-19T06:21:09;24.10;92.90
8910;DHT22;4490;49.072;8.804;2023-06-19T06:23:35;24.10;92.70
8910;DHT22;4490;49.072;8.804;2023-06-19T06:26:01;24.10;92.60
8910;DHT22;4490;49.072;8.804;2023-06-19T06:28:28;24.00;92.10
8910;DHT22;4490;49.072;8.804;2023-06-19T06:30:54;24.10;92.10
8910;DHT22;4490;49.072;8.804;2023-06-19T06:33:20;24.20;92.20
8910;DHT22;4490;49.072;8.804;2023-06-19T06:35:46;24.20;91.90
8910;DHT22;4490;49.072;8.804;2023-06-19T06:38:11;24.30;91.80
8910;DHT22;4490;49.072;8.804;2023-06-19T06:40:37;24.40;91.00
8910;DHT22;4490;49.072;8.804;2023-06-19T06:43:02;24.40;91.00
8910;DHT22;4490;49.072;8.804;2023-06-19T06:45:28;24.40;91.10
8910;DHT22;4490;49.072;8.804;2023-06-19T06:47:53;24.40;91.00
8910;DHT22;4490;49.072;8.804;2023-06-19T06:50:19;24.40;90.80
8910;DHT22;4490;49.072;8.804;2023-06-19T06:52:45;24.40;90.50
8910;DHT22;4490;49.072;8.804;2023-06-19T06:55:10;24.40;90.40
8910;DHT22;4490;49.072;8.804;2023-06-19T06:57:36;24.40;90.20
8910;DHT22;4490;49.072;8.804;2023-06-19T07:00:03;24.40;90.20
8910;DHT22;4490;49.072;8.804;2023-06-19T07:02:29;24.40;90.60
8910;DHT22;4490;49.072;8.804;2023-06-19T07:04:55;24.40;90.50
8910;DHT22;4490;49.072;8.804;2023-06-19T07:07:20;24.50;91.00
8910;DHT22;4490;49.072;8.804;2023-06-19T07:09:46;24.50;91.00
8910;DHT22;4490;49.072;8.804;2023-06-19T07:12:12;24.60;90.70
8910;DHT22;4490;49.072;8.804;2023-06-19T07:14:38;24.70;90.80
8910;DHT22;4490;49.072;8.804;2023-06-19T07:17:04;24.80;90.70
8910;DHT22;4490;49.072;8.804;2023-06-19T07:19:32;24.90;90.60
8910;DHT22;4490;49.072;8.804;2023-06-19T07:21:58;25.00;90.10
8910;DHT22;4490;49.072;8.804;2023-06-19T07:24:24;25.10;89.90
8910;DHT22;4490;49.072;8.804;2023-06-19T07:26:50;25.20;90.00
8910;DHT22;4490;49.072;8.804;2023-06-19T07:29:15;25.40;89.50
8910;DHT22;4490;49.072;8.804;2023-06-19T07:31:41;25.50;89.10
8910;DHT22;4490;49.072;8.804;2023-06-19T07:34:08;25.70;88.20
8910;DHT22;4490;49.072;8.804;2023-06-19T07:36:34;25.90;87.50
8910;DHT22;4490;49.072;8.804;2023-06-19T07:38:59;26.10;86.90
8910;DHT22;4490;49.072;8.804;2023-06-19T07:41:25;26.20;85.60
8910;DHT22;4490;49.072;8.804;2023-06-19T07:43:51;26.30;85.10
8910;DHT22;4490;49.072;8.804;2023-06-19T07:46:16;26.40;85.10
8910;DHT22;4490;49.072;8.804;2023-06-19T07:48:42;26.50;84.00
8910;DHT22;4490;49.072;8.804;2023-06-19T07:51:08;26.60;83.20
8910;DHT22;4490;49.072;8.804;2023-06-19T07:53:33;26.70;83.70
8910;DHT22;4490;49.072;8.804;2023-06-19T07:55:59;26.70;82.00
8910;DHT22;4490;49.072;8.804;2023-06-19T07:58:25;26.80;81.60
8910;DHT22;4490;49.072;8.804;2023-06-19T08:00:50;26.80;81.70
8910;DHT22;4490;49.072;8.804;2023-06-19T08:03:16;26.80;81.00
8910;DHT22;4490;49.072;8.804;2023-06-19T08:05:42;26.80;80.10
8910;DHT22;4490;49.072;8.804;2023-06-19T08:08:07;26.80;79.60
8910;DHT22;4490;49.072;8.804;2023-06-19T08:10:33;26.80;79.00
8910;DHT22;4490;49.072;8.804;2023-06-19T08:12:58;26.90;78.70
8910;DHT22;4490;49.072;8.804;2023-06-19T08:15:24;26.90;78.40
8910;DHT22;4490;49.072;8.804;2023-06-19T08:17:49;27.00;78.70
8910;DHT22;4490;49.072;8.804;2023-06-19T08:20:15;27.10;78.50
8910;DHT22;4490;49.072;8.804;2023-06-19T08:22:41;27.10;77.90
8910;DHT22;4490;49.072;8.804;2023-06-19T08:25:07;27.10;76.80
8910;DHT22;4490;49.072;8.804;2023-06-19T08:27:33;27.10;76.90
8910;DHT22;4490;49.072;8.804;2023-06-19T08:29:58;27.20;77.40
8910;DHT22;4490;49.072;8.804;2023-06-19T08:32:24;27.30;76.60
8910;DHT22;4490;49.072;8.804;2023-06-19T08:34:50;27.50;76.60
8910;DHT22;4490;49.072;8.804;2023-06-19T08:37:17;27.60;76.10
8910;DHT22;4490;49.072;8.804;2023-06-19T08:39:43;27.80;76.20
8910;DHT22;4490;49.072;8.804;2023-06-19T08:42:09;27.90;75.80
8910;DHT22;4490;49.072;8.804;2023-06-19T08:44:35;28.00;75.00
8910;DHT22;4490;49.072;8.804;2023-06-19T08:47:02;28.10;75.20
8910;DHT22;4490;49.072;8.804;2023-06-19T08:49:35;28.20;74.60
8910;DHT22;4490;49.072;8.804;2023-06-19T08:52:02;28.20;74.30
8910;DHT22;4490;49.072;8.804;2023-06-19T08:54:28;28.20;74.30
8910;DHT22;4490;49.072;8.804;2023-06-19T08:56:53;28.20;74.20
8910;DHT22;4490;49.072;8.804;2023-06-19T08:59:19;28.30;74.30
8910;DHT22;4490;49.072;8.804;2023-06-19T09:01:53;28.30;74.00
8910;DHT22;4490;49.072;8.804;2023-06-19T09:04:28;28.40;73.60
8910;DHT22;4490;49.072;8.804;2023-06-19T09:06:57;28.40;73.60
8910;DHT22;4490;49.072;8.804;2023-06-19T09:09:24;28.50;74.30
8910;DHT22;4490;49.072;8.804;2023-06-19T09:12:04;28.60;74.30
8910;DHT22;4490;49.072;8.804;2023-06-19T09:14:38;28.60;73.10
8910;DHT22;4490;49.072;8.804;2023-06-19T09:17:05;28.60;72.70
8910;DHT22;4490;49.072;8.804;2023-06-19T09:19:32;28.60;73.20
8910;DHT22;4490;49.072;8.804;2023-06-19T09:22:04;28.60;73.60
8910;DHT22;4490;49.072;8.804;2023-06-19T09:24:39;28.70;73.40
8910;DHT22;4490;49.072;8.804;2023-06-19T09:27:13;28.80;73.40
8910;DHT22;4490;49.072;8.804;2023-06-19T09:29:46;28.90;72.70
8910;DHT22;4490;49.072;8.804;2023-06-19T09:32:26;28.80;72.60
8910;DHT22;4490;49.072;8.804;2023-06-19T09:34:55;28.80;72.60
8910;DHT22;4490;49.072;8.804;2023-06-19T09:37:28;28.70;72.50
8910;DHT22;4490;49.072;8.804;2023-06-19T09:42:34;28.40;73.00
8910;DHT22;4490;49.072;8.804;2023-06-19T09:45:07;28.30;73.50
8910;DHT22;4490;49.072;8.804;2023-06-19T09:47:37;28.30;74.00
8910;DHT22;4490;49.072;8.804;2023-06-19T09:50:04;28.40;74.00
8910;DHT22;4490;49.072;8.804;2023-06-19T09:52:30;28.60;74.20
8910;DHT22;4490;49.072;8.804;2023-06-19T09:54:56;28.70;73.40
8910;DHT22;4490;49.072;8.804;2023-06-19T09:57:23;29.00;73.20
8910;DHT22;4490;49.072;8.804;2023-06-19T09:59:56;29.20;73.10
8910;DHT22;4490;49.072;8.804;2023-06-19T10:02:22;29.40;72.20
8910;DHT22;4490;49.072;8.804;2023-06-19T10:04:53;29.50;71.80
8910;DHT22;4490;49.072;8.804;2023-06-19T10:07:32;29.70;71.50
8910;DHT22;4490;49.072;8.804;2023-06-19T10:12:41;30.00;70.60
8910;DHT22;4490;49.072;8.804;2023-06-19T10:15:31;30.10;70.70
8910;DHT22;4490;49.072;8.804;2023-06-19T10:18:01;30.20;68.80
8910;DHT22;4490;49.072;8.804;2023-06-19T10:20:32;30.20;69.30
8910;DHT22;4490;49.072;8.804;2023-06-19T10:23:05;30.30;69.20
8910;DHT22;4490;49.072;8.804;2023-06-19T10:25:34;30.30;69.00
8910;DHT22;4490;49.072;8.804;2023-06-19T10:28:00;30.30;68.60
8910;DHT22;4490;49.072;8.804;2023-06-19T10:30:26;30.30;68.70
8910;DHT22;4490;49.072;8.804;2023-06-19T10:32:52;30.40;69.00
8910;DHT22;4490;49.072;8.804;2023-06-19T10:35:18;30.50;68.60
8910;DHT22;4490;49.072;8.804;2023-06-19T10:37:47;30.60;68.20
8910;DHT22;4490;49.072;8.804;2023-06-19T10:40:13;30.80;67.90
8910;DHT22;4490;49.072;8.804;2023-06-19T10:42:39;31.00;66.80
8910;DHT22;4490;49.072;8.804;2023-06-19T10:45:08;31.10;66.70
8910;DHT22;4490;49.072;8.804;2023-06-19T10:47:43;31.30;66.50
8910;DHT22;4490;49.072;8.804;2023-06-19T10:50:14;31.40;66.50
8910;DHT22;4490;49.072;8.804;2023-06-19T10:52:41;31.50;65.60
8910;DHT22;4490;49.072;8.804;2023-06-19T10:55:07;31.60;65.30
8910;DHT22;4490;49.072;8.804;2023-06-19T10:57:33;31.50;64.70
8910;DHT22;4490;49.072;8.804;2023-06-19T10:59:59;31.50;64.50
8910;DHT22;4490;49.072;8.804;2023-06-19T11:02:25;31.40;64.10
8910;DHT22;4490;49.072;8.804;2023-06-19T11:04:54;31.30;64.20
8910;DHT22;4490;49.072;8.804;2023-06-19T11:07:22;31.20;64.60
8910;DHT22;4490;49.072;8.804;2023-06-19T11:09:51;31.10;65.20
8910;DHT22;4490;49.072;8.804;2023-06-19T11:12:20;31.10;64.60
8910;DHT22;4490;49.072;8.804;2023-06-19T11:14:47;31.10;65.00
8910;DHT22;4490;49.072;8.804;2023-06-19T11:17:13;31.10;65.30
8910;DHT22;4490;49.072;8.804;2023-06-19T11:19:38;31.20;64.60
8910;DHT22;4490;49.072;8.804;2023-06-19T11:22:07;31.30;64.40
8910;DHT22;4490;49.072;8.804;2023-06-19T11:24:33;31.30;64.50
8910;DHT22;4490;49.072;8.804;2023-06-19T11:26:59;31.50;65.10
8910;DHT22;4490;49.072;8.804;2023-06-19T11:29:26;31.70;65.00
8910;DHT22;4490;49.072;8.804;2023-06-19T11:32:05;32.00;64.00
8910;DHT22;4490;49.072;8.804;2023-06-19T11:34:35;32.20;62.70
8910;DHT22;4490;49.072;8.804;2023-06-19T11:37:22;32.30;62.70
8910;DHT22;4490;49.072;8.804;2023-06-19T11:39:49;32.30;62.00
8910;DHT22;4490;49.072;8.804;2023-06-19T11:42:16;32.40;62.20
8910;DHT22;4490;49.072;8.804;2023-06-19T11:45:01;32.40;62.00
8910;DHT22;4490;49.072;8.804;2023-06-19T11:47:30;32.50;61.70
8910;DHT22;4490;49.072;8.804;2023-06-19T11:49:57;32.60;62.10
8910;DHT22;4490;49.072;8.804;2023-06-19T11:52:23;32.70;61.90
8910;DHT22;4490;49.072;8.804;2023-06-19T11:54:49;32.90;61.50
8910;DHT22;4490;49.072;8.804;2023-06-19T11:57:14;32.90;61.70
8910;DHT22;4490;49.072;8.804;2023-06-19T11:59:42;33.00;61.40
8910;DHT22;4490;49.072;8.804;2023-06-19T12:02:08;33.00;60.80
8910;DHT22;4490;49.072;8.804;2023-06-19T12:04:34;33.10;60.70
8910;DHT22;4490;49.072;8.804;2023-06-19T12:07:01;33.10;60.70
8910;DHT22;4490;49.072;8.804;2023-06-19T12:09:27;33.10;60.00
8910;DHT22;4490;49.072;8.804;2023-06-19T12:11:53;33.00;60.20
8910;DHT22;4490;49.072;8.804;2023-06-19T12:14:19;33.00;60.20
8910;DHT22;4490;49.072;8.804;2023-06-19T12:16:48;32.90;59.60
8910;DHT22;4490;49.072;8.804;2023-06-19T12:19:14;32.80;59.20
8910;DHT22;4490;49.072;8.804;2023-06-19T12:21:39;32.80;59.50
8910;DHT22;4490;49.072;8.804;2023-06-19T12:24:05;32.70;59.40
8910;DHT22;4490;49.072;8.804;2023-06-19T12:26:33;32.70;59.70
8910;DHT22;4490;49.072;8.804;2023-06-19T12:29:05;32.70;59.80
8910;DHT22;4490;49.072;8.804;2023-06-19T12:31:34;32.60;59.70
8910;DHT22;4490;49.072;8.804;2023-06-19T12:34:01;32.60;59.60
8910;DHT22;4490;49.072;8.804;2023-06-19T12:36:27;32.50;59.60
8910;DHT22;4490;49.072;8.804;2023-06-19T12:38:53;32.50;60.00
8910;DHT22;4490;49.072;8.804;2023-06-19T12:41:20;32.60;59.80
8910;DHT22;4490;49.072;8.804;2023-06-19T12:43:46;32.70;60.00
8910;DHT22;4490;49.072;8.804;2023-06-19T12:46:12;33.00;59.70
8910;DHT22;4490;49.072;8.804;2023-06-19T12:48:38;33.20;59.00
8910;DHT22;4490;49.072;8.804;2023-06-19T12:51:03;33.50;58.80
8910;DHT22;4490;49.072;8.804;2023-06-19T12:53:29;33.70;59.10
8910;DHT22;4490;49.072;8.804;2023-06-19T12:55:59;33.80;59.10
8910;DHT22;4490;49.072;8.804;2023-06-19T12:58:25;34.00;58.60
8910;DHT22;4490;49.072;8.804;2023-06-19T13:00:51;34.20;57.90
8910;DHT22;4490;49.072;8.804;2023-06-19T13:03:16;34.20;57.70
8910;DHT22;4490;49.072;8.804;2023-06-19T13:05:42;34.20;57.80
8910;DHT22;4490;49.072;8.804;2023-06-19T13:08:08;34.30;57.70
8910;DHT22;4490;49.072;8.804;2023-06-19T13:10:33;34.20;57.50
8910;DHT22;4490;49.072;8.804;2023-06-19T13:12:59;34.20;58.00
8910;DHT22;4490;49.072;8.804;2023-06-19T13:15:25;34.20;57.20
8910;DHT22;4490;49.072;8.804;2023-06-19T13:17:51;34.20;57.10
8910;DHT22;4490;49.072;8.804;2023-06-19T13:20:17;34.00;57.00
8910;DHT22;4490;49.072;8.804;2023-06-19T13:22:42;33.90;57.00
8910;DHT22;4490;49.072;8.804;2023-06-19T13:25:08;33.70;57.50
8910;DHT22;4490;49.072;8.804;2023-06-19T13:27:34;33.60;57.50
8910;DHT22;4490;49.072;8.804;2023-06-19T13:30:01;33.70;58.00
8910;DHT22;4490;49.072;8.804;2023-06-19T13:32:27;33.80;57.30
8910;DHT22;4490;49.072;8.804;2023-06-19T13:34:52;33.80;57.10
8910;DHT22;4490;49.072;8.804;2023-06-19T13:37:19;33.90;57.20
8910;DHT22;4490;49.072;8.804;2023-06-19T13:39:45;33.90;56.90
8910;DHT22;4490;49.072;8.804;2023-06-19T13:42:10;33.90;57.00
8910;DHT22;4490;49.072;8.804;2023-06-19T13:44:37;33.80;57.50
8910;DHT22;4490;49.072;8.804;2023-06-19T13:47:03;33.80;57.10
8910;DHT22;4490;49.072;8.804;2023-06-19T13:49:29;33.70;56.90
8910;DHT22;4490;49.072;8.804;2023-06-19T13:51:55;33.60;56.90
8910;DHT22;4490;49.072;8.804;2023-06-19T13:54:21;33.60;57.30
8910;DHT22;4490;49.072;8.804;2023-06-19T13:56:47;33.50;57.50
8910;DHT22;4490;49.072;8.804;2023-06-19T13:59:14;33.40;57.80
8910;DHT22;4490;49.072;8.804;2023-06-19T14:01:40;33.30;58.00
8910;DHT22;4490;49.072;8.804;2023-06-19T14:04:06;33.30;57.80
8910;DHT22;4490;49.072;8.804;2023-06-19T14:06:32;33.30;57.60
8910;DHT22;4490;49.072;8.804;2023-06-19T14:08:58;33.40;57.50
8910;DHT22;4490;49.072;8.804;2023-06-19T14:11:23;33.40;58.00
8910;DHT22;4490;49.072;8.804;2023-06-19T14:13:49;33.50;57.60
8910;DHT22;4490;49.072;8.804;2023-06-19T14:16:15;33.60;57.00
8910;DHT22;4490;49.072;8.804;2023-06-19T14:18:41;33.60;57.00
8910;DHT22;4490;49.072;8.804;2023-06-19T14:21:06;33.50;56.90
8910;DHT22;4490;49.072;8.804;2023-06-19T14:23:32;33.40;57.50
8910;DHT22;4490;49.072;8.804;2023-06-19T14:25:59;33.30;57.30
8910;DHT22;4490;49.072;8.804;2023-06-19T14:28:25;33.20;57.20
8910;DHT22;4490;49.072;8.804;2023-06-19T14:30:50;33.10;57.20
8910;DHT22;4490;49.072;8.804;2023-06-19T14:33:16;33.00;57.50
8910;DHT22;4490;49.072;8.804;2023-06-19T14:35:42;33.00;57.40
8910;DHT22;4490;49.072;8.804;2023-06-19T14:38:14;33.00;57.30
8910;DHT22;4490;49.072;8.804;2023-06-19T14:40:41;32.90;57.40
8910;DHT22;4490;49.072;8.804;2023-06-19T14:43:07;32.90;57.60
8910;DHT22;4490;49.072;8.804;2023-06-19T14:45:34;32.90;57.30
8910;DHT22;4490;49.072;8.804;2023-06-19T14:48:00;32.90;57.60
8910;DHT22;4490;49.072;8.804;2023-06-19T14:50:25;32.90;57.60
8910;DHT22;4490;49.072;8.804;2023-06-19T14:52:51;33.00;56.20
8910;DHT22;4490;49.072;8.804;2023-06-19T14:55:16;33.00;56.50
8910;DHT22;4490;49.072;8.804;2023-06-19T14:57:42;33.00;56.70
8910;DHT22;4490;49.072;8.804;2023-06-19T15:00:08;32.90;56.60
8910;DHT22;4490;49.072;8.804;2023-06-19T15:02:35;33.00;56.50
8910;DHT22;4490;49.072;8.804;2023-06-19T15:05:01;33.00;56.60
8910;DHT22;4490;49.072;8.804;2023-06-19T15:07:26;33.00;55.70
8910;DHT22;4490;49.072;8.804;2023-06-19T15:09:52;33.00;55.50
8910;DHT22;4490;49.072;8.804;2023-06-19T15:12:17;32.90;56.30
8910;DHT22;4490;49.072;8.804;2023-06-19T15:14:44;32.90;56.10
8910;DHT22;4490;49.072;8.804;2023-06-19T15:17:10;32.90;55.80
8910;DHT22;4490;49.072;8.804;2023-06-19T15:19:35;32.90;55.70
8910;DHT22;4490;49.072;8.804;2023-06-19T15:22:01;32.80;55.60
8910;DHT22;4490;49.072;8.804;2023-06-19T15:24:27;32.80;56.00
8910;DHT22;4490;49.072;8.804;2023-06-19T15:26:53;32.80;56.20
8910;DHT22;4490;49.072;8.804;2023-06-19T15:29:18;32.70;56.20
8910;DHT22;4490;49.072;8.804;2023-06-19T15:31:44;32.70;56.30
8910;DHT22;4490;49.072;8.804;2023-06-19T15:34:09;32.70;56.50
8910;DHT22;4490;49.072;8.804;2023-06-19T15:36:35;32.70;56.60
8910;DHT22;4490;49.072;8.804;2023-06-19T15:39:01;32.60;57.00
8910;DHT22;4490;49.072;8.804;2023-06-19T15:41:26;32.60;56.90
8910;DHT22;4490;49.072;8.804;2023-06-19T15:43:52;32.60;56.70
8910;DHT22;4490;49.072;8.804;2023-06-19T15:46:18;32.60;56.40
8910;DHT22;4490;49.072;8.804;2023-06-19T15:48:43;32.60;56.50
8910;DHT22;4490;49.072;8.804;2023-06-19T15:51:09;32.50;56.70
8910;DHT22;4490;49.072;8.804;2023-06-19T15:53:38;32.50;57.20
8910;DHT22;4490;49.072;8.804;2023-06-19T15:56:04;32.50;56.90
8910;DHT22;4490;49.072;8.804;2023-06-19T15:58:30;32.40;57.20
8910;DHT22;4490;49.072;8.804;2023-06-19T16:00:55;32.30;57.20
8910;DHT22;4490;49.072;8.804;2023-06-19T16:03:21;32.30;57.60
8910;DHT22;4490;49.072;8.804;2023-06-19T16:05:48;32.20;57.60
8910;DHT22;4490;49.072;8.804;2023-06-19T16:08:21;32.20;58.00